Time;durP1;ratioP1;P1;durP2;ratioP2;P2;SDS_P1;SDS_P2;PMS_P1;PMS_P2;Temp;Humidity;BMP_temperature;BMP_pressure;BME280_temperature;BME280_humidity;BME280_pressure;Samples;Min_cycle;Max_cycle;Signal;HPM_P1;HPM_P2
2023/03/25 00:01:48;;;;;;;2.50;1.60;;;;;;;;;;5118912;28;20450;-72
2023/03/25 00:04:17;;;;;;;5.50;2.30;;;;;;;;;;5118998;28;21103;-72
2023/03/25 00:06:57;;;;;;;3.00;1.50;;;;;;;;;;5118824;28;20488;-72
2023/03/25 00:09:25;;;;;;;2.90;1.93;;;;;;;;;;5119718;28;20535;-73
2023/03/25 00:11:56;;;;;;;5.50;1.70;;;;;;;;;;5115040;28;20459;-72
2023/03/25 00:14:25;;;;;;;4.37;1.53;;;;;;;;;;5118825;28;20723;-72
2023/03/25 00:16:54;;;;;;;5.90;1.90;;;;;;;;;;5118077;28;20511;-72
2023/03/25 00:19:40;;;;;;;2.80;1.50;;;;;;;;;;5112276;28;20917;-72
2023/03/25 00:22:13;;;;;;;3.63;1.50;;;;;;;;;;5118141;28;20473;-72
2023/03/25 00:24:43;;;;;;;7.70;2.23;;;;;;;;;;5118011;28;20512;-73
2023/03/25 00:27:18;;;;;;;5.13;2.00;;;;;;;;;;5098633;28;20458;-72
2023/03/25 00:29:46;;;;;;;3.13;1.80;;;;;;;;;;5101256;28;20443;-72
2023/03/25 00:32:19;;;;;;;6.33;2.03;;;;;;;;;;5105096;28;20536;-72
2023/03/25 00:34:51;;;;;;;2.70;1.20;;;;;;;;;;5106170;28;20491;-72
2023/03/25 00:37:20;;;;;;;2.87;1.70;;;;;;;;;;5107915;28;20466;-72
2023/03/25 00:39:48;;;;;;;2.80;1.50;;;;;;;;;;5117756;28;20493;-72
2023/03/25 00:42:24;;;;;;;2.63;1.40;;;;;;;;;;5105377;28;20448;-72
2023/03/25 00:45:15;;;;;;;2.90;1.80;;;;;;;;;;5109161;28;20531;-72
2023/03/25 00:47:48;;;;;;;3.13;1.70;;;;;;;;;;5115318;28;20454;-73
2023/03/25 00:50:22;;;;;;;4.32;1.90;;;;;;;;;;5098722;28;20452;-72
2023/03/25 00:52:56;;;;;;;4.90;1.80;;;;;;;;;;5104431;28;20205;-72
2023/03/25 00:55:24;;;;;;;4.03;1.50;;;;;;;;;;5097156;28;20462;-72
2023/03/25 00:57:55;;;;;;;3.27;1.40;;;;;;;;;;5113107;28;20504;-72
2023/03/25 01:00:23;;;;;;;2.70;1.10;;;;;;;;;;5111414;28;20928;-72
2023/03/25 01:02:53;;;;;;;5.83;1.77;;;;;;;;;;5105595;28;20451;-71
2023/03/25 01:05:40;;;;;;;4.50;2.20;;;;;;;;;;5116609;28;20465;-71
2023/03/25 01:08:16;;;;;;;5.80;1.80;;;;;;;;;;5117109;28;20782;-71
2023/03/25 01:10:44;;;;;;;3.40;1.40;;;;;;;;;;5116021;28;20574;-73
2023/03/25 01:13:15;;;;;;;4.77;1.40;;;;;;;;;;5097811;28;20746;-73
2023/03/25 01:15:43;;;;;;;3.70;1.70;;;;;;;;;;5096865;28;20529;-73
2023/03/25 01:18:12;;;;;;;5.43;1.30;;;;;;;;;;5098195;28;20952;-72
2023/03/25 01:20:41;;;;;;;6.00;1.90;;;;;;;;;;5112346;28;20474;-72
2023/03/25 01:23:10;;;;;;;5.50;1.60;;;;;;;;;;5118250;28;20815;-72
2023/03/25 01:25:38;;;;;;;4.03;1.30;;;;;;;;;;5117054;27;20447;-72
2023/03/25 01:28:07;;;;;;;2.63;1.80;;;;;;;;;;5098414;28;20448;-72
2023/03/25 01:30:35;;;;;;;5.47;1.70;;;;;;;;;;5103123;28;20556;-72
2023/03/25 01:33:02;;;;;;;2.87;1.20;;;;;;;;;;5101897;28;20478;-72
2023/03/25 01:35:33;;;;;;;8.50;1.90;;;;;;;;;;5105429;28;20467;-72
2023/03/25 01:38:01;;;;;;;5.40;1.98;;;;;;;;;;5106209;28;20490;-72
2023/03/25 01:40:30;;;;;;;3.37;1.70;;;;;;;;;;5118100;28;20227;-72
2023/03/25 01:42:59;;;;;;;4.67;1.60;;;;;;;;;;5102152;28;20448;-72
2023/03/25 01:45:33;;;;;;;4.33;2.03;;;;;;;;;;5118537;28;20470;-72
2023/03/25 01:48:09;;;;;;;3.13;1.30;;;;;;;;;;5106922;28;20458;-72
2023/03/25 01:53:24;;;;;;;2.63;1.20;;;;;;;;;;5095763;28;20462;-72
2023/03/25 01:55:53;;;;;;;2.90;1.40;;;;;;;;;;5098437;28;20258;-72
2023/03/25 01:58:22;;;;;;;4.43;1.53;;;;;;;;;;5098144;28;20460;-72
2023/03/25 02:00:53;;;;;;;5.40;1.60;;;;;;;;;;5109464;28;20518;-72
2023/03/25 02:03:29;;;;;;;4.30;1.33;;;;;;;;;;5103288;28;20463;-72
2023/03/25 02:06:02;;;;;;;4.40;1.83;;;;;;;;;;5109809;28;20451;-72
2023/03/25 02:08:36;;;;;;;6.10;1.80;;;;;;;;;;5113436;28;20800;-72
2023/03/25 02:11:05;;;;;;;4.30;1.40;;;;;;;;;;5100925;28;20461;-72
2023/03/25 02:13:33;;;;;;;5.20;1.50;;;;;;;;;;5101084;28;20539;-72
2023/03/25 02:16:22;;;;;;;3.43;1.50;;;;;;;;;;5094192;28;20444;-72
2023/03/25 02:18:56;;;;;;;5.03;1.60;;;;;;;;;;5092964;28;20459;-72
2023/03/25 02:21:44;;;;;;;3.87;2.00;;;;;;;;;;5095850;28;20538;-72
2023/03/25 02:24:35;;;;;;;2.78;1.20;;;;;;;;;;5093501;28;20444;-72
2023/03/25 02:27:25;;;;;;;4.63;1.50;;;;;;;;;;5089523;28;20201;-72
2023/03/25 02:30:27;;;;;;;8.10;1.70;;;;;;;;;;5095349;28;20717;-72
2023/03/25 02:33:06;;;;;;;2.70;1.20;;;;;;;;;;5115881;28;20531;-72
2023/03/25 02:35:51;;;;;;;3.20;1.57;;;;;;;;;;5108164;28;20447;-72
2023/03/25 02:38:40;;;;;;;5.33;1.77;;;;;;;;;;5096876;28;20483;-72
2023/03/25 02:41:13;;;;;;;3.80;1.63;;;;;;;;;;5091111;28;20570;-72
2023/03/25 02:43:48;;;;;;;3.53;1.43;;;;;;;;;;5097749;28;20879;-72
2023/03/25 02:46:20;;;;;;;5.30;1.80;;;;;;;;;;5113931;28;20467;-71
2023/03/25 02:48:51;;;;;;;3.50;1.40;;;;;;;;;;5105706;28;20534;-71
2023/03/25 02:51:23;;;;;;;4.33;1.43;;;;;;;;;;5103475;28;20506;-72
2023/03/25 02:53:53;;;;;;;10.50;1.80;;;;;;;;;;5097285;28;20872;-72
2023/03/25 02:56:28;;;;;;;3.40;1.63;;;;;;;;;;5095693;28;20801;-71
2023/03/25 02:59:00;;;;;;;6.53;1.90;;;;;;;;;;5112492;28;20481;-73
2023/03/25 03:01:28;;;;;;;6.07;1.60;;;;;;;;;;5110700;28;20450;-73
2023/03/25 03:03:56;;;;;;;5.30;1.60;;;;;;;;;;5096688;28;20444;-72
2023/03/25 03:06:26;;;;;;;4.00;1.63;;;;;;;;;;5096510;28;20458;-72
2023/03/25 03:09:13;;;;;;;8.05;2.22;;;;;;;;;;5096066;28;20482;-73
2023/03/25 03:11:48;;;;;;;4.30;2.00;;;;;;;;;;5108187;28;20226;-73
2023/03/25 03:14:32;;;;;;;3.63;2.35;;;;;;;;;;5116094;28;20900;-73
2023/03/25 03:17:02;;;;;;;5.70;1.90;;;;;;;;;;5102887;28;20213;-73
2023/03/25 03:19:37;;;;;;;4.40;2.40;;;;;;;;;;5100702;28;20931;-73
2023/03/25 03:22:15;;;;;;;8.00;3.20;;;;;;;;;;5102603;28;20900;-72
2023/03/25 03:24:46;;;;;;;3.47;2.30;;;;;;;;;;5105087;28;20463;-73
2023/03/25 03:27:22;;;;;;;3.07;2.10;;;;;;;;;;5114817;28;20466;-73
2023/03/25 03:29:53;;;;;;;4.03;2.53;;;;;;;;;;5119674;28;20446;-73
2023/03/25 03:32:23;;;;;;;5.35;2.60;;;;;;;;;;5115613;28;20458;-72
2023/03/25 03:34:54;;;;;;;4.80;2.70;;;;;;;;;;5100614;28;20581;-72
2023/03/25 03:37:25;;;;;;;4.73;2.43;;;;;;;;;;5099795;28;20905;-71
2023/03/25 03:39:53;;;;;;;6.43;3.20;;;;;;;;;;5103924;28;20726;-72
2023/03/25 03:42:26;;;;;;;7.77;2.50;;;;;;;;;;5121209;28;20895;-71
2023/03/25 03:44:56;;;;;;;5.63;2.40;;;;;;;;;;5121141;28;20447;-73
2023/03/25 03:47:26;;;;;;;7.30;2.43;;;;;;;;;;5104961;28;20905;-71
2023/03/25 03:49:58;;;;;;;4.80;2.33;;;;;;;;;;5120506;28;20507;-71
2023/03/25 03:52:32;;;;;;;3.87;2.50;;;;;;;;;;5121520;28;20526;-71
2023/03/25 03:55:02;;;;;;;3.28;2.85;;;;;;;;;;5116694;28;20444;-72
2023/03/25 03:57:33;;;;;;;4.30;2.13;;;;;;;;;;5102866;28;20205;-73
2023/03/25 04:00:11;;;;;;;4.47;2.03;;;;;;;;;;5100413;28;20475;-72
2023/03/25 04:02:40;;;;;;;8.33;3.63;;;;;;;;;;5117681;28;20454;-72
2023/03/25 04:05:13;;;;;;;3.40;2.40;;;;;;;;;;5118345;28;20479;-73
2023/03/25 04:07:42;;;;;;;4.60;2.40;;;;;;;;;;5112112;28;20709;-72
2023/03/25 04:10:17;;;;;;;4.30;2.40;;;;;;;;;;5100673;28;20710;-72
2023/03/25 04:12:50;;;;;;;6.80;2.20;;;;;;;;;;5105001;28;20483;-72
2023/03/25 04:15:18;;;;;;;3.27;1.70;;;;;;;;;;5119948;28;20462;-71
2023/03/25 04:17:46;;;;;;;4.50;2.63;;;;;;;;;;5119886;28;20543;-72
2023/03/25 04:20:15;;;;;;;4.80;2.50;;;;;;;;;;5120896;28;20514;-72
2023/03/25 04:22:45;;;;;;;4.70;2.20;;;;;;;;;;5119929;28;20591;-72
2023/03/25 04:25:13;;;;;;;4.20;2.37;;;;;;;;;;5100625;28;20467;-72
2023/03/25 04:27:47;;;;;;;4.80;3.10;;;;;;;;;;5098425;28;20550;-72
2023/03/25 04:30:18;;;;;;;5.63;2.47;;;;;;;;;;5114476;28;20908;-72
2023/03/25 04:32:46;;;;;;;4.73;2.53;;;;;;;;;;5113698;28;20550;-72
2023/03/25 04:35:14;;;;;;;5.10;2.50;;;;;;;;;;5098525;28;20520;-72
2023/03/25 04:37:44;;;;;;;6.03;2.93;;;;;;;;;;5106020;28;20451;-72
2023/03/25 04:40:15;;;;;;;6.87;2.30;;;;;;;;;;5119196;28;20494;-71
2023/03/25 04:42:43;;;;;;;4.87;2.73;;;;;;;;;;5119741;28;20465;-71
2023/03/25 04:45:13;;;;;;;3.80;2.27;;;;;;;;;;5119860;28;20952;-71
2023/03/25 04:47:45;;;;;;;3.80;2.40;;;;;;;;;;5119028;28;20582;-72
2023/03/25 04:50:19;;;;;;;4.80;2.50;;;;;;;;;;5119745;28;20892;-71
2023/03/25 04:52:47;;;;;;;3.60;2.73;;;;;;;;;;5118467;28;20497;-70
2023/03/25 04:55:18;;;;;;;4.20;2.87;;;;;;;;;;5118929;28;20473;-70
2023/03/25 04:57:46;;;;;;;7.30;2.70;;;;;;;;;;5118072;28;20482;-72
2023/03/25 05:00:21;;;;;;;6.72;2.60;;;;;;;;;;5119161;28;20934;-72
2023/03/25 05:02:50;;;;;;;6.80;2.40;;;;;;;;;;5107226;28;20509;-72
2023/03/25 05:05:19;;;;;;;5.23;2.50;;;;;;;;;;5097154;28;20448;-72
2023/03/25 05:07:48;;;;;;;4.43;2.73;;;;;;;;;;5097504;28;20464;-71
2023/03/25 05:10:16;;;;;;;3.23;2.17;;;;;;;;;;5097361;28;20761;-73
2023/03/25 05:12:44;;;;;;;5.43;2.70;;;;;;;;;;5097760;28;20460;-71
2023/03/25 05:15:15;;;;;;;6.00;2.40;;;;;;;;;;5097345;28;20455;-71
2023/03/25 05:17:44;;;;;;;6.95;2.13;;;;;;;;;;5099484;28;21498;-72
2023/03/25 05:20:16;;;;;;;9.20;2.83;;;;;;;;;;5118117;28;20218;-72
2023/03/25 05:22:45;;;;;;;5.60;2.40;;;;;;;;;;5117200;28;20454;-72
2023/03/25 05:25:13;;;;;;;5.00;2.47;;;;;;;;;;5116467;28;20500;-72
2023/03/25 05:27:41;;;;;;;11.40;2.43;;;;;;;;;;5098086;28;21087;-72
2023/03/25 05:30:10;;;;;;;7.37;3.30;;;;;;;;;;5096948;28;20446;-73
2023/03/25 05:32:39;;;;;;;6.43;1.90;;;;;;;;;;5103259;28;20927;-73
2023/03/25 05:35:11;;;;;;;6.30;2.60;;;;;;;;;;5101733;28;20463;-71
2023/03/25 05:37:41;;;;;;;4.75;2.08;;;;;;;;;;5116885;28;20458;-72
2023/03/25 05:40:10;;;;;;;8.23;2.60;;;;;;;;;;5115507;28;20216;-73
2023/03/25 05:42:45;;;;;;;6.80;3.03;;;;;;;;;;5117751;28;20454;-72
2023/03/25 05:45:14;;;;;;;4.40;2.20;;;;;;;;;;5116554;28;20503;-72
2023/03/25 05:47:43;;;;;;;7.30;2.70;;;;;;;;;;5116338;28;20454;-72
2023/03/25 05:50:13;;;;;;;7.37;2.60;;;;;;;;;;5116979;28;21053;-72
2023/03/25 05:52:44;;;;;;;6.90;2.67;;;;;;;;;;5116317;28;21003;-72
2023/03/25 05:55:14;;;;;;;6.13;3.17;;;;;;;;;;5116262;28;20510;-72
2023/03/25 05:57:45;;;;;;;6.53;3.10;;;;;;;;;;5116772;28;20458;-72
2023/03/25 06:00:17;;;;;;;6.00;2.90;;;;;;;;;;5118143;28;20490;-72
2023/03/25 06:02:47;;;;;;;7.47;3.40;;;;;;;;;;5116021;28;20536;-71
2023/03/25 06:05:16;;;;;;;4.97;3.20;;;;;;;;;;5096387;28;20937;-72
2023/03/25 06:07:48;;;;;;;6.10;2.40;;;;;;;;;;5096374;28;20525;-72
2023/03/25 06:10:16;;;;;;;3.80;3.00;;;;;;;;;;5096522;28;20928;-72
2023/03/25 06:12:44;;;;;;;4.00;2.70;;;;;;;;;;5095960;28;20467;-72
2023/03/25 06:15:14;;;;;;;10.35;3.30;;;;;;;;;;5107386;28;20836;-72
2023/03/25 06:17:45;;;;;;;4.23;2.47;;;;;;;;;;5106605;28;20271;-73
2023/03/25 06:20:15;;;;;;;6.37;2.80;;;;;;;;;;5100281;28;20472;-72
2023/03/25 06:22:43;;;;;;;7.57;2.50;;;;;;;;;;5116814;28;20458;-72
2023/03/25 06:25:16;;;;;;;8.83;2.90;;;;;;;;;;5102782;28;20528;-73
2023/03/25 06:27:44;;;;;;;8.50;2.83;;;;;;;;;;5100202;28;20482;-72
2023/03/25 06:30:13;;;;;;;5.10;3.20;;;;;;;;;;5104049;28;20456;-73
2023/03/25 06:32:41;;;;;;;5.10;2.30;;;;;;;;;;5112315;28;20469;-72
2023/03/25 06:35:10;;;;;;;6.97;3.67;;;;;;;;;;5111651;28;20840;-72
2023/03/25 06:37:39;;;;;;;7.37;3.40;;;;;;;;;;5094850;28;20525;-72
2023/03/25 06:40:11;;;;;;;9.23;2.65;;;;;;;;;;5095147;28;20455;-72
2023/03/25 06:42:40;;;;;;;7.13;2.90;;;;;;;;;;5095203;28;20202;-72
2023/03/25 06:45:12;;;;;;;9.67;3.90;;;;;;;;;;5092828;28;20551;-72
2023/03/25 06:47:42;;;;;;;8.77;3.83;;;;;;;;;;5094285;28;20448;-72
2023/03/25 06:50:12;;;;;;;7.87;2.50;;;;;;;;;;5103344;28;20523;-71
2023/03/25 06:52:40;;;;;;;6.70;3.17;;;;;;;;;;5106356;28;20737;-72
2023/03/25 06:55:15;;;;;;;6.93;3.03;;;;;;;;;;5103117;28;20456;-73
2023/03/25 06:58:00;;;;;;;4.35;2.40;;;;;;;;;;5104587;28;20442;-72
2023/03/25 07:00:29;;;;;;;5.85;2.30;;;;;;;;;;5106678;28;20313;-72
2023/03/25 07:02:57;;;;;;;6.30;1.93;;;;;;;;;;5109536;28;20197;-72
2023/03/25 07:05:26;;;;;;;4.07;2.30;;;;;;;;;;5108648;28;20530;-72
2023/03/25 07:07:54;;;;;;;3.60;2.25;;;;;;;;;;5108333;28;20529;-73
2023/03/25 07:10:24;;;;;;;5.27;1.90;;;;;;;;;;5112732;28;20197;-72
2023/03/25 07:12:56;;;;;;;6.88;2.20;;;;;;;;;;5109007;28;20446;-72
2023/03/25 07:15:25;;;;;;;6.10;2.30;;;;;;;;;;5106889;28;20259;-71
2023/03/25 07:17:54;;;;;;;6.50;2.13;;;;;;;;;;5105989;28;20461;-71
2023/03/25 07:20:24;;;;;;;5.77;2.13;;;;;;;;;;5105067;28;20450;-71
2023/03/25 07:22:52;;;;;;;4.35;1.75;;;;;;;;;;5115916;28;20458;-70
2023/03/25 07:25:21;;;;;;;3.53;1.80;;;;;;;;;;5112364;28;20211;-74
2023/03/25 07:27:50;;;;;;;4.97;2.20;;;;;;;;;;5114524;28;20704;-72
2023/03/25 07:30:19;;;;;;;5.93;1.80;;;;;;;;;;5116533;28;20854;-73
2023/03/25 07:32:48;;;;;;;5.77;2.07;;;;;;;;;;5115989;28;20201;-73
2023/03/25 07:35:16;;;;;;;4.60;1.50;;;;;;;;;;5114739;28;20466;-73
2023/03/25 07:37:44;;;;;;;4.00;1.60;;;;;;;;;;5096313;28;20477;-73
2023/03/25 07:40:15;;;;;;;6.00;1.87;;;;;;;;;;5096503;28;20463;-72
2023/03/25 07:42:43;;;;;;;5.23;1.50;;;;;;;;;;5096576;28;20789;-71
2023/03/25 07:45:12;;;;;;;3.87;1.50;;;;;;;;;;5096722;28;20481;-71
2023/03/25 07:47:41;;;;;;;2.03;1.47;;;;;;;;;;5096524;28;20460;-73
2023/03/25 07:50:10;;;;;;;4.70;1.33;;;;;;;;;;5099568;28;20529;-72
2023/03/25 07:52:38;;;;;;;4.33;1.77;;;;;;;;;;5115068;28;20464;-73
2023/03/25 07:55:06;;;;;;;4.13;1.83;;;;;;;;;;5118667;28;20527;-72
2023/03/25 07:57:34;;;;;;;6.10;2.07;;;;;;;;;;5118442;28;21020;-73
2023/03/25 08:00:11;;;;;;;3.17;1.67;;;;;;;;;;5118418;28;20462;-72
2023/03/25 08:02:39;;;;;;;4.73;1.87;;;;;;;;;;5117963;28;20482;-73
2023/03/25 08:05:20;;;;;;;4.30;1.70;;;;;;;;;;5118851;28;20921;-73
2023/03/25 08:07:50;;;;;;;4.57;2.00;;;;;;;;;;5117626;28;20454;-72
2023/03/25 08:10:19;;;;;;;8.27;1.48;;;;;;;;;;5106337;28;20451;-73
2023/03/25 08:15:58;;;;;;;2.17;0.90;;;;;;;;;;5075847;28;20196;-72
2023/03/25 08:18:28;;;;;;;6.03;1.97;;;;;;;;;;5119526;28;20451;-72
2023/03/25 08:20:57;;;;;;;3.30;1.90;;;;;;;;;;5118679;27;20933;-72
2023/03/25 08:23:25;;;;;;;6.43;1.53;;;;;;;;;;5118149;28;20767;-72
2023/03/25 08:25:54;;;;;;;2.30;1.30;;;;;;;;;;5118453;28;20829;-72
2023/03/25 08:28:22;;;;;;;5.97;1.63;;;;;;;;;;5118738;28;20465;-73
2023/03/25 08:30:53;;;;;;;3.13;2.00;;;;;;;;;;5118043;27;20463;-72
2023/03/25 08:33:32;;;;;;;4.37;2.27;;;;;;;;;;5123487;27;20474;-72
2023/03/25 08:36:03;;;;;;;5.07;2.20;;;;;;;;;;5115455;28;20461;-72
2023/03/25 08:38:31;;;;;;;3.40;1.80;;;;;;;;;;5111226;28;20463;-72
2023/03/25 08:41:04;;;;;;;3.97;1.70;;;;;;;;;;5106122;28;20578;-72
2023/03/25 08:43:33;;;;;;;3.60;1.80;;;;;;;;;;5096848;28;20488;-71
2023/03/25 08:46:05;;;;;;;4.13;1.53;;;;;;;;;;5095034;28;20479;-72
2023/03/25 08:48:37;;;;;;;4.27;1.90;;;;;;;;;;5101114;28;20481;-71
2023/03/25 08:51:08;;;;;;;2.57;0.87;;;;;;;;;;5100201;28;20440;-71
2023/03/25 08:53:42;;;;;;;2.33;1.40;;;;;;;;;;5101844;28;20829;-72
2023/03/25 08:56:36;;;;;;;4.63;2.03;;;;;;;;;;5116494;28;20469;-73
2023/03/25 08:59:08;;;;;;;4.70;1.20;;;;;;;;;;5116342;28;20530;-73
2023/03/25 09:01:36;;;;;;;4.47;2.07;;;;;;;;;;5115305;28;20483;-73
2023/03/25 09:04:04;;;;;;;4.90;1.70;;;;;;;;;;5097652;28;20452;-71
2023/03/25 09:06:36;;;;;;;3.43;1.67;;;;;;;;;;5111250;28;20447;-72
2023/03/25 09:09:05;;;;;;;5.37;1.40;;;;;;;;;;5114398;28;20511;-73
2023/03/25 09:11:37;;;;;;;5.80;1.10;;;;;;;;;;5113348;28;20463;-72
2023/03/25 09:14:06;;;;;;;2.80;1.33;;;;;;;;;;5113786;28;20457;-73
2023/03/25 09:16:34;;;;;;;3.90;1.20;;;;;;;;;;5098802;28;20839;-73
2023/03/25 09:19:12;;;;;;;4.73;1.73;;;;;;;;;;5093896;28;20448;-73
2023/03/25 09:21:45;;;;;;;3.00;1.60;;;;;;;;;;5102382;28;20528;-74
2023/03/25 09:24:23;;;;;;;6.23;1.50;;;;;;;;;;5107153;28;20451;-73
2023/03/25 09:26:56;;;;;;;4.30;1.23;;;;;;;;;;5100429;28;20881;-73
2023/03/25 09:29:24;;;;;;;3.37;1.03;;;;;;;;;;5107032;27;20435;-74
2023/03/25 09:31:52;;;;;;;8.77;1.77;;;;;;;;;;5114478;28;20542;-72
2023/03/25 09:34:30;;;;;;;5.73;1.30;;;;;;;;;;5094400;28;20541;-72
2023/03/25 09:37:03;;;;;;;2.63;1.20;;;;;;;;;;5110740;28;20458;-73
2023/03/25 09:39:37;;;;;;;2.60;1.40;;;;;;;;;;5103577;28;20469;-73
2023/03/25 09:42:27;;;;;;;3.63;1.40;;;;;;;;;;5114072;28;20490;-73
2023/03/25 09:44:57;;;;;;;2.73;1.20;;;;;;;;;;5113699;28;20453;-73
2023/03/25 09:47:32;;;;;;;4.10;1.33;;;;;;;;;;5113269;28;20519;-74
2023/03/25 09:53:00;;;;;;;1.80;0.73;;;;;;;;;;5112357;28;20434;-73
2023/03/25 09:55:30;;;;;;;1.90;0.70;;;;;;;;;;5112410;28;20573;-73
2023/03/25 09:58:03;;;;;;;3.07;0.70;;;;;;;;;;5111810;28;20463;-73
2023/03/25 10:00:35;;;;;;;2.53;0.70;;;;;;;;;;5112850;28;20932;-73
2023/03/25 10:03:20;;;;;;;3.00;0.80;;;;;;;;;;5110448;28;20494;-72
2023/03/25 10:06:06;;;;;;;3.83;0.63;;;;;;;;;;5097845;28;20483;-72
2023/03/25 10:08:42;;;;;;;1.97;0.50;;;;;;;;;;5098789;28;20692;-71
2023/03/25 10:11:16;;;;;;;4.03;0.70;;;;;;;;;;5113531;28;20489;-73
2023/03/25 10:13:50;;;;;;;2.70;0.70;;;;;;;;;;5112376;28;20236;-71
2023/03/25 10:16:26;;;;;;;3.50;2.83;;;;;;;;;;5111931;28;20194;-72
2023/03/25 10:18:58;;;;;;;2.90;1.10;;;;;;;;;;5113333;28;20442;-71
2023/03/25 10:21:33;;;;;;;1.60;0.70;;;;;;;;;;5114522;28;20473;-72
2023/03/25 10:24:18;;;;;;;3.10;1.73;;;;;;;;;;5100794;28;20444;-73
2023/03/25 10:26:50;;;;;;;4.63;1.43;;;;;;;;;;5092214;28;20474;-71
2023/03/25 10:29:21;;;;;;;1.53;0.77;;;;;;;;;;5092773;28;21047;-71
2023/03/25 10:31:55;;;;;;;3.70;0.87;;;;;;;;;;5099015;28;20562;-71
2023/03/25 10:34:26;;;;;;;6.30;1.13;;;;;;;;;;5093537;28;20443;-72
2023/03/25 10:36:59;;;;;;;3.00;0.90;;;;;;;;;;5092399;28;20447;-72
2023/03/25 10:39:38;;;;;;;7.43;1.07;;;;;;;;;;5092653;28;20543;-72
2023/03/25 10:42:17;;;;;;;4.20;0.80;;;;;;;;;;5114647;28;20520;-73
2023/03/25 10:44:49;;;;;;;2.70;1.33;;;;;;;;;;5113662;28;20523;-73
2023/03/25 10:50:13;;;;;;;9.03;2.57;;;;;;;;;;5112947;28;20521;-73
2023/03/25 10:53:08;;;;;;;4.13;1.70;;;;;;;;;;5112022;28;20438;-73
2023/03/25 10:56:13;;;;;;;4.83;1.07;;;;;;;;;;5114449;28;20455;-73
2023/03/25 10:59:08;;;;;;;3.07;1.40;;;;;;;;;;5053551;28;21044;-72
2023/03/25 11:02:00;;;;;;;3.70;1.13;;;;;;;;;;5114486;28;20454;-72
2023/03/25 11:04:51;;;;;;;4.43;1.17;;;;;;;;;;5114191;28;20466;-74
2023/03/25 11:07:32;;;;;;;4.90;1.33;;;;;;;;;;5114590;28;20450;-72
2023/03/25 11:10:31;;;;;;;5.20;1.30;;;;;;;;;;5112692;28;20855;-73
2023/03/25 11:13:25;;;;;;;;;;;;;;;;;;;;;
2023/03/25 11:16:02;;;;;;;3.37;0.80;;;;;;;;;;5089211;28;20854;-72
2023/03/25 11:18:36;;;;;;;2.90;1.00;;;;;;;;;;5091947;28;20455;-72
2023/03/25 11:21:33;;;;;;;8.10;1.27;;;;;;;;;;5093142;28;20453;-71
2023/03/25 11:24:18;;;;;;;3.90;1.10;;;;;;;;;;5092040;28;20193;-71
2023/03/25 11:29:49;;;;;;;5.83;1.27;;;;;;;;;;5098542;28;20581;-71
2023/03/25 11:32:33;;;;;;;8.30;1.50;;;;;;;;;;5112277;28;20449;-72
2023/03/25 11:35:23;;;;;;;2.73;1.13;;;;;;;;;;5108602;28;21002;-72
2023/03/25 11:38:20;;;;;;;6.20;1.87;;;;;;;;;;5097623;28;20458;-72
2023/03/25 11:43:54;;;;;;;4.40;1.73;;;;;;;;;;5109380;28;20490;-72
2023/03/25 11:46:22;;;;;;;4.80;1.30;;;;;;;;;;5111353;28;20458;-72
2023/03/25 11:48:57;;;;;;;4.30;1.40;;;;;;;;;;5115773;28;20865;-72
2023/03/25 11:51:39;;;;;;;5.03;1.58;;;;;;;;;;5103690;28;20450;-72
2023/03/25 11:54:09;;;;;;;5.88;1.48;;;;;;;;;;5115649;28;20198;-72
2023/03/25 11:56:47;;;;;;;2.83;1.43;;;;;;;;;;5112906;28;20296;-74
2023/03/25 11:59:27;;;;;;;6.97;1.97;;;;;;;;;;5111156;28;20454;-73
2023/03/25 12:02:02;;;;;;;6.60;2.47;;;;;;;;;;5106664;28;20854;-74
2023/03/25 12:04:36;;;;;;;5.47;1.60;;;;;;;;;;5109044;28;20451;-71
2023/03/25 12:07:13;;;;;;;5.20;1.60;;;;;;;;;;5089598;28;20546;-72
2023/03/25 12:09:54;;;;;;;4.40;1.40;;;;;;;;;;5089778;28;20564;-72
2023/03/25 12:12:39;;;;;;;5.47;1.50;;;;;;;;;;5091230;28;20495;-73
2023/03/25 12:15:14;;;;;;;4.23;0.80;;;;;;;;;;5107070;28;20534;-73
2023/03/25 12:17:49;;;;;;;2.07;0.70;;;;;;;;;;5098789;28;20455;-73
2023/03/25 12:20:39;;;;;;;2.67;1.20;;;;;;;;;;5108184;28;21003;-73
2023/03/25 12:23:40;;;;;;;7.67;2.23;;;;;;;;;;5100861;28;20487;-73
2023/03/25 12:29:12;;;;;;;2.57;0.73;;;;;;;;;;5113004;28;20435;-72
2023/03/25 12:31:50;;;;;;;2.53;0.87;;;;;;;;;;5109269;28;20686;-71
2023/03/25 12:34:28;;;;;;;3.20;1.40;;;;;;;;;;5093961;28;21016;-72
2023/03/25 12:37:05;;;;;;;1.67;0.63;;;;;;;;;;5095156;28;20462;-72
2023/03/25 12:39:42;;;;;;;3.00;1.10;;;;;;;;;;5113062;28;20486;-73
2023/03/25 12:42:16;;;;;;;2.27;0.77;;;;;;;;;;5113876;28;20586;-72
2023/03/25 12:45:04;;;;;;;3.87;0.90;;;;;;;;;;5113386;28;20517;-72
2023/03/25 12:47:36;;;;;;;2.13;0.90;;;;;;;;;;5112546;28;21084;-72
2023/03/25 12:50:27;;;;;;;3.60;1.30;;;;;;;;;;5108274;28;20810;-73
2023/03/25 12:53:06;;;;;;;4.43;1.13;;;;;;;;;;5105524;28;20451;-72
2023/03/25 12:55:54;;;;;;;3.07;1.80;;;;;;;;;;5106276;28;20439;-71
2023/03/25 12:58:33;;;;;;;2.13;1.20;;;;;;;;;;5113319;28;20454;-71
2023/03/25 13:01:06;;;;;;;3.97;1.30;;;;;;;;;;5114166;28;20435;-71
2023/03/25 13:03:46;;;;;;;5.03;1.87;;;;;;;;;;5112041;28;20517;-70
2023/03/25 13:06:29;;;;;;;3.23;1.37;;;;;;;;;;5113119;28;20842;-71
2023/03/25 13:09:05;;;;;;;3.13;1.60;;;;;;;;;;5114382;28;20535;-71
2023/03/25 13:11:38;;;;;;;3.87;1.87;;;;;;;;;;5114168;28;20869;-71
2023/03/25 13:14:11;;;;;;;3.23;1.40;;;;;;;;;;5111804;28;20459;-72
2023/03/25 13:16:44;;;;;;;4.40;1.40;;;;;;;;;;5101211;28;20610;-71
2023/03/25 13:19:14;;;;;;;8.00;2.20;;;;;;;;;;5091362;28;21263;-71
2023/03/25 13:21:49;;;;;;;3.83;1.63;;;;;;;;;;5092726;28;20518;-70
2023/03/25 13:24:25;;;;;;;3.60;1.40;;;;;;;;;;5091521;28;20487;-71
2023/03/25 13:26:54;;;;;;;4.07;2.47;;;;;;;;;;5089943;28;20602;-72
2023/03/25 13:33:05;;;;;;;3.47;1.20;;;;;;;;;;5085271;28;20523;-70
2023/03/25 13:35:43;;;;;;;7.07;1.30;;;;;;;;;;5107921;28;20519;-72
2023/03/25 13:38:14;;;;;;;2.50;1.30;;;;;;;;;;5091559;28;20743;-70
2023/03/25 13:40:54;;;;;;;2.77;1.10;;;;;;;;;;5089465;28;20436;-73
2023/03/25 13:43:36;;;;;;;4.53;1.50;;;;;;;;;;5091196;28;20507;-72
2023/03/25 13:46:17;;;;;;;5.83;1.67;;;;;;;;;;5106753;28;20537;-72
2023/03/25 13:48:54;;;;;;;3.73;1.40;;;;;;;;;;5110615;28;20741;-72
2023/03/25 13:51:22;;;;;;;4.93;1.83;;;;;;;;;;5112254;28;20443;-71
2023/03/25 13:53:53;;;;;;;4.57;1.97;;;;;;;;;;5107546;28;20447;-71
2023/03/25 13:56:42;;;;;;;5.47;1.43;;;;;;;;;;5111940;28;20546;-70
2023/03/25 13:59:43;;;;;;;6.72;1.55;;;;;;;;;;5113031;28;20455;-71
2023/03/25 14:02:28;;;;;;;3.27;1.43;;;;;;;;;;5111707;28;20785;-71
2023/03/25 14:05:31;;;;;;;4.07;1.30;;;;;;;;;;5112615;28;20504;-71
2023/03/25 14:08:30;;;;;;;2.77;1.13;;;;;;;;;;5091833;28;20543;-70
2023/03/25 14:11:26;;;;;;;2.10;1.30;;;;;;;;;;5092963;28;20463;-70
2023/03/25 14:14:02;;;;;;;5.43;1.93;;;;;;;;;;5092850;28;20198;-71
2023/03/25 14:19:51;;;;;;;3.93;1.33;;;;;;;;;;5061869;28;20746;-71
2023/03/25 14:22:37;;;;;;;2.47;1.80;;;;;;;;;;5093958;28;20447;-71
2023/03/25 14:25:26;;;;;;;4.70;1.88;;;;;;;;;;5094008;28;20947;-71
2023/03/25 14:28:03;;;;;;;4.50;2.33;;;;;;;;;;5093865;28;20205;-70
2023/03/25 14:30:35;;;;;;;3.22;1.40;;;;;;;;;;5094992;28;20211;-71
2023/03/25 14:33:12;;;;;;;3.30;1.10;;;;;;;;;;5100571;28;20197;-72
2023/03/25 14:35:58;;;;;;;3.57;1.50;;;;;;;;;;5103446;28;20531;-71
2023/03/25 14:38:50;;;;;;;6.73;1.67;;;;;;;;;;5093525;28;21163;-71
2023/03/25 14:41:45;;;;;;;2.93;1.40;;;;;;;;;;5094541;28;20725;-70
2023/03/25 14:44:19;;;;;;;2.90;1.33;;;;;;;;;;5092110;28;20471;-70
2023/03/25 14:46:47;;;;;;;3.40;1.50;;;;;;;;;;5091182;28;20482;-69
2023/03/25 14:49:28;;;;;;;4.33;1.20;;;;;;;;;;5102007;28;20456;-69
2023/03/25 14:52:01;;;;;;;4.10;1.50;;;;;;;;;;5111633;28;20735;-70
2023/03/25 14:54:31;;;;;;;3.97;1.00;;;;;;;;;;5113855;28;20659;-71
2023/03/25 14:57:07;;;;;;;3.50;1.17;;;;;;;;;;5113393;28;20764;-71
2023/03/25 14:59:42;;;;;;;5.73;1.20;;;;;;;;;;5106313;28;20463;-71
2023/03/25 15:02:20;;;;;;;2.10;1.00;;;;;;;;;;5108613;28;20911;-71
2023/03/25 15:04:55;;;;;;;3.10;0.90;;;;;;;;;;5112906;28;20522;-71
2023/03/25 15:08:03;;;;;;;;;;;;;;;;;;;;;
2023/03/25 15:10:37;;;;;;;4.90;1.10;;;;;;;;;;5092849;28;20447;-71
2023/03/25 15:13:18;;;;;;;1.70;0.85;;;;;;;;;;5092431;28;21079;-71
2023/03/25 15:16:00;;;;;;;5.33;1.20;;;;;;;;;;5103315;28;20612;-71
2023/03/25 15:19:00;;;;;;;4.20;1.30;;;;;;;;;;5109768;28;20512;-70
2023/03/25 15:21:59;;;;;;;2.77;1.10;;;;;;;;;;5031528;28;20443;-71
2023/03/25 15:24:27;;;;;;;4.30;1.50;;;;;;;;;;5112965;28;20777;-71
2023/03/25 15:27:01;;;;;;;2.25;1.02;;;;;;;;;;5116253;28;21064;-71
2023/03/25 15:29:43;;;;;;;2.00;0.87;;;;;;;;;;5114648;28;20349;-71
2023/03/25 15:35:30;;;;;;;4.97;1.85;;;;;;;;;;5111816;28;20482;-70
2023/03/25 15:38:13;;;;;;;3.10;1.07;;;;;;;;;;5050815;28;20214;-71
2023/03/25 15:40:52;;;;;;;3.77;1.20;;;;;;;;;;5093424;28;20513;-71
2023/03/25 15:43:37;;;;;;;8.33;3.60;;;;;;;;;;5100505;27;20578;-72
2023/03/25 15:46:34;;;;;;;3.73;1.33;;;;;;;;;;5094813;28;20481;-72
2023/03/25 15:49:19;;;;;;;4.10;1.00;;;;;;;;;;5060055;28;20452;-71
2023/03/25 15:52:07;;;;;;;2.53;1.03;;;;;;;;;;5109879;28;20461;-72
2023/03/25 15:54:40;;;;;;;1.97;0.90;;;;;;;;;;5115275;28;21013;-72
2023/03/25 15:57:17;;;;;;;5.97;1.80;;;;;;;;;;5115776;28;20451;-72
2023/03/25 15:59:55;;;;;;;4.80;1.23;;;;;;;;;;5114458;28;20874;-73
2023/03/25 16:02:37;;;;;;;5.15;2.08;;;;;;;;;;5116841;28;20533;-73